Stafford, KS (67578)

3:28 PM CDT on July 25, 2016 (GMT -0500)
Stafford | | Change Station

Elev 1880 ft 37.96 °N, 98.61 °W | Updated 10 minutes ago

Clear
Clear
89.1 °F
Feels Like 96 °F
N
1.1
Wind Variable Wind from ESE

Today
High -- | Low -- °F
--% Chance of Precip.
Yesterday
High -- | Low -- °F
Precip. -- in
Pressure 30.06 in
Visibility 10.0 miles
Clouds Clear
Heat Index 96 °F
Dew Point 71 °F
Humidity 56%
Rainfall 0.49 in
Snow Depth Not available.
6:32 AM 8:49 PM
Waning Gibbous, 62% visible
METAR KPTT 252015Z AUTO 09006KT 10SM CLR 27/19 A3006 RMK AO2 T02720189
Pressure 30.06 in
Visibility 10.0 miles
Clouds Clear
Heat Index 96 °F
Dew Point 71 °F
Humidity 56%
Rainfall 0.49 in
Snow Depth Not available.
6:32 AM 8:49 PM
Waning Gibbous, 62% visible
METAR KPTT 252015Z AUTO 09006KT 10SM CLR 27/19 A3006 RMK AO2 T02720189

10-Day Weather Forecast

Almanac

Astronomy

Jul. 25, 2016 Rise Set
Actual Time
Civil Twilight
Nautical Twilight
Astronomical Twilight
Moon
Length of Visible Light
Length of Day
Tomorrow will be .
, % of the Moon is Illuminated

Today's Extremes

State Highs State Lows

Community

WunderPhotos

Upload Photos

1,927,415 photos uploaded!

WunderBlog® & News

Nearby

Air Quality

  Air Quality AQ Index Pollutant
Not available.

Snow Depth

Station Depth Elevation

Earthquake Activity

City Distance Mag. Time & Date
Minimum magnitude displayed is 2.5.

Coastal Water Temperatures

Place Temperature

Stations

Nearby Weather Stations

Station Location Temp. Windchill Dew Point Humidity Wind Precip. Elev Updated Type
                   

Watches & Warnings

There are currently no watches in effect.